This is the latest recevied weather packets stored in our database for station/object BMCB-9. If no packets are shown the sender has not sent any weather packets the latest 10 day(s).
| Time | Temp. | Humidity | Pressure | Rain* | Wind** | Luminosity | Snow |
|---|---|---|---|---|---|---|---|
| 1778113256 | 8.33° C | 98% | 1013.3 hPa | 0 mm | - | 0 W/m² | - |
| 1778091660 | 11.67° C | 80% | 1010.3 hPa | 0 mm | - | 6 W/m² | - |
| 1778088059 | 12.22° C | 86% | 1009.5 hPa | 0 mm | - | 14 W/m² | - |
| 1778084458 | 12.78° C | 83% | 1009.3 hPa | 0 mm | - | 66 W/m² | - |
| 1778082657 | 12.78° C | 77% | 1009.2 hPa | 0 mm | - | 94 W/m² | - |
| 1778076063 | 11.67° C | 90% | 1009.3 hPa | 0 mm | - | 34 W/m² | - |
| 1778073658 | 11.67° C | 87% | 1009.3 hPa | 0 mm | - | 18 W/m² | - |
| 1778071255 | 11.67° C | 82% | 1009.1 hPa | 0 mm | - | 188 W/m² | - |
| 1778070658 | 11.67° C | 84% | 1009 hPa | 0 mm | - | 84 W/m² | - |
| 1778056855 | 8.89° C | 98% | 1008.2 hPa | 0.76 mm | - | 58 W/m² | - |
| 1778054457 | 8.89° C | 99% | 1007.9 hPa | 0.51 mm | - | 52 W/m² | - |
| 1778052655 | 8.33° C | 99% | 1007.7 hPa | 0.51 mm | - | 34 W/m² | - |
| 1778050855 | 8.33° C | 10% | 1007.6 hPa | 0.76 mm | - | - | - |
| 1778049655 | 8.33° C | 10% | 1007.5 hPa | 1.27 mm | - | - | - |
| 1778036453 | 8.89° C | 97% | 1007.4 hPa | 0.76 mm | - | 0 W/m² | - |
| 1778031654 | 9.44° C | 98% | 1007.5 hPa | 1.02 mm | - | 0 W/m² | - |
| 1778030453 | 9.44° C | 98% | 1007.6 hPa | 1.27 mm | - | 0 W/m² | - |
| 1778027452 | 9.44° C | 98% | 1007.8 hPa | 1.52 mm | - | 0 W/m² | - |
| 1778025656 | 9.44° C | 98% | 1008 hPa | 1.52 mm | - | 0 W/m² | - |
| 1778014257 | 10° C | 97% | 1008.8 hPa | 1.27 mm | - | 0 W/m² | - |
| 1778010059 | 10° C | 98% | 1008.5 hPa | 1.02 mm | - | 0 W/m² | - |
| 1777989057 | 10.56° C | 97% | 1008.9 hPa | 0 mm | - | 52 W/m² | - |
| 1777984856 | 11.11° C | 97% | 1009.4 hPa | 0 mm | - | 68 W/m² | - |
| 1777982456 | 11.67° C | 97% | 1009.4 hPa | 0 mm | - | 82 W/m² | - |
| 1777979456 | 11.67° C | 96% | 1009.6 hPa | 0 mm | - | 68 W/m² | - |
* Rain latest hour (hover to see other rain measurements)
** Current wind speed in m/s (hover to see current wind gust speed)